sensor_id;sensor_type;location;lat;lon;timestamp;temperature;humidity
42663;DHT22;44330;51.360;6.686;2023-03-16T00:01:09;3.30;1.00
42663;DHT22;44330;51.360;6.686;2023-03-16T00:03:36;3.30;1.00
42663;DHT22;44330;51.360;6.686;2023-03-16T00:06:02;3.20;1.00
42663;DHT22;44330;51.360;6.686;2023-03-16T00:08:27;3.20;1.00
42663;DHT22;44330;51.360;6.686;2023-03-16T00:10:53;3.20;1.00
42663;DHT22;44330;51.360;6.686;2023-03-16T00:13:22;3.20;1.00
42663;DHT22;44330;51.360;6.686;2023-03-16T00:15:59;3.30;1.00
42663;DHT22;44330;51.360;6.686;2023-03-16T00:18:26;3.30;1.00
42663;DHT22;44330;51.360;6.686;2023-03-16T00:20:54;3.30;1.00
42663;DHT22;44330;51.360;6.686;2023-03-16T00:23:20;3.30;1.00
42663;DHT22;44330;51.360;6.686;2023-03-16T00:25:57;3.30;1.00
42663;DHT22;44330;51.360;6.686;2023-03-16T00:28:25;3.30;1.00
42663;DHT22;44330;51.360;6.686;2023-03-16T00:30:50;3.30;1.00
42663;DHT22;44330;51.360;6.686;2023-03-16T00:33:16;3.20;1.00
42663;DHT22;44330;51.360;6.686;2023-03-16T00:35:46;3.20;1.00
42663;DHT22;44330;51.360;6.686;2023-03-16T00:38:16;3.20;1.00
42663;DHT22;44330;51.360;6.686;2023-03-16T00:40:42;3.30;1.00
42663;DHT22;44330;51.360;6.686;2023-03-16T00:43:08;3.40;1.00
42663;DHT22;44330;51.360;6.686;2023-03-16T00:45:33;3.30;1.00
42663;DHT22;44330;51.360;6.686;2023-03-16T00:47:59;3.30;1.00
42663;DHT22;44330;51.360;6.686;2023-03-16T00:50:26;3.40;1.00
42663;DHT22;44330;51.360;6.686;2023-03-16T00:52:51;3.40;1.00
42663;DHT22;44330;51.360;6.686;2023-03-16T00:55:18;3.40;1.00
42663;DHT22;44330;51.360;6.686;2023-03-16T00:57:44;3.40;1.00
42663;DHT22;44330;51.360;6.686;2023-03-16T01:00:10;3.50;1.00
42663;DHT22;44330;51.360;6.686;2023-03-16T01:02:39;3.50;1.00
42663;DHT22;44330;51.360;6.686;2023-03-16T01:05:05;3.50;1.00
42663;DHT22;44330;51.360;6.686;2023-03-16T01:07:31;3.50;1.00
42663;DHT22;44330;51.360;6.686;2023-03-16T01:09:56;3.50;1.00
42663;DHT22;44330;51.360;6.686;2023-03-16T01:12:23;3.50;1.00
42663;DHT22;44330;51.360;6.686;2023-03-16T01:14:48;3.50;1.00
42663;DHT22;44330;51.360;6.686;2023-03-16T01:17:16;3.50;1.00
42663;DHT22;44330;51.360;6.686;2023-03-16T01:19:42;3.50;1.00
42663;DHT22;44330;51.360;6.686;2023-03-16T01:22:09;3.50;1.00
42663;DHT22;44330;51.360;6.686;2023-03-16T01:24:36;3.50;1.00
42663;DHT22;44330;51.360;6.686;2023-03-16T01:27:02;3.60;1.00
42663;DHT22;44330;51.360;6.686;2023-03-16T01:29:29;3.60;1.00
42663;DHT22;44330;51.360;6.686;2023-03-16T01:31:55;3.60;1.00
42663;DHT22;44330;51.360;6.686;2023-03-16T01:34:20;3.60;1.00
42663;DHT22;44330;51.360;6.686;2023-03-16T01:36:47;3.60;1.00
42663;DHT22;44330;51.360;6.686;2023-03-16T01:39:13;3.60;1.00
42663;DHT22;44330;51.360;6.686;2023-03-16T01:41:40;3.60;1.00
42663;DHT22;44330;51.360;6.686;2023-03-16T01:44:09;3.60;1.00
42663;DHT22;44330;51.360;6.686;2023-03-16T01:46:35;3.70;99.90
42663;DHT22;44330;51.360;6.686;2023-03-16T01:54:00;3.70;99.90
42663;DHT22;44330;51.360;6.686;2023-03-16T01:56:34;3.70;99.90
42663;DHT22;44330;51.360;6.686;2023-03-16T01:59:05;3.80;99.90
42663;DHT22;44330;51.360;6.686;2023-03-16T02:01:31;3.80;99.90
42663;DHT22;44330;51.360;6.686;2023-03-16T02:04:05;3.80;99.90
42663;DHT22;44330;51.360;6.686;2023-03-16T02:06:32;3.80;99.90
42663;DHT22;44330;51.360;6.686;2023-03-16T02:08:58;3.80;99.90
42663;DHT22;44330;51.360;6.686;2023-03-16T02:11:24;3.80;99.90
42663;DHT22;44330;51.360;6.686;2023-03-16T02:13:50;3.80;99.90
42663;DHT22;44330;51.360;6.686;2023-03-16T02:16:18;3.80;99.90
42663;DHT22;44330;51.360;6.686;2023-03-16T02:18:47;3.80;99.90
42663;DHT22;44330;51.360;6.686;2023-03-16T02:24:02;3.90;63.60
42663;DHT22;44330;51.360;6.686;2023-03-16T02:32:17;3.90;57.80
42663;DHT22;44330;51.360;6.686;2023-03-16T02:34:43;3.90;45.30
42663;DHT22;44330;51.360;6.686;2023-03-16T02:37:09;3.90;90.00
42663;DHT22;44330;51.360;6.686;2023-03-16T02:39:36;3.80;99.90
42663;DHT22;44330;51.360;6.686;2023-03-16T02:42:02;3.80;97.00
42663;DHT22;44330;51.360;6.686;2023-03-16T02:44:30;3.80;99.90
42663;DHT22;44330;51.360;6.686;2023-03-16T02:47:01;3.90;58.70
42663;DHT22;44330;51.360;6.686;2023-03-16T02:51:59;3.90;36.90
42663;DHT22;44330;51.360;6.686;2023-03-16T02:54:24;3.90;44.80
42663;DHT22;44330;51.360;6.686;2023-03-16T02:56:50;3.90;27.10
42663;DHT22;44330;51.360;6.686;2023-03-16T02:59:16;4.00;14.10
42663;DHT22;44330;51.360;6.686;2023-03-16T03:01:41;4.00;4.80
42663;DHT22;44330;51.360;6.686;2023-03-16T03:04:07;4.00;12.90
42663;DHT22;44330;51.360;6.686;2023-03-16T03:06:33;4.00;1.00
42663;DHT22;44330;51.360;6.686;2023-03-16T03:08:59;4.00;1.00
42663;DHT22;44330;51.360;6.686;2023-03-16T03:11:26;4.00;1.00
42663;DHT22;44330;51.360;6.686;2023-03-16T03:13:53;3.90;1.00
42663;DHT22;44330;51.360;6.686;2023-03-16T03:16:19;3.90;1.00
42663;DHT22;44330;51.360;6.686;2023-03-16T03:18:46;3.90;1.00
42663;DHT22;44330;51.360;6.686;2023-03-16T03:21:11;3.90;1.00
42663;DHT22;44330;51.360;6.686;2023-03-16T03:23:37;3.90;1.00
42663;DHT22;44330;51.360;6.686;2023-03-16T03:26:02;4.00;1.00
42663;DHT22;44330;51.360;6.686;2023-03-16T03:28:29;4.00;1.00
42663;DHT22;44330;51.360;6.686;2023-03-16T03:30:55;4.00;1.00
42663;DHT22;44330;51.360;6.686;2023-03-16T03:33:20;4.00;1.00
42663;DHT22;44330;51.360;6.686;2023-03-16T03:35:52;4.00;1.00
42663;DHT22;44330;51.360;6.686;2023-03-16T03:38:17;4.10;99.90
42663;DHT22;44330;51.360;6.686;2023-03-16T03:40:43;4.10;99.90
42663;DHT22;44330;51.360;6.686;2023-03-16T03:43:08;4.10;99.90
42663;DHT22;44330;51.360;6.686;2023-03-16T03:45:34;4.20;99.90
42663;DHT22;44330;51.360;6.686;2023-03-16T03:48:00;4.20;99.90
42663;DHT22;44330;51.360;6.686;2023-03-16T03:50:25;4.20;99.90
42663;DHT22;44330;51.360;6.686;2023-03-16T03:52:51;4.20;99.90
42663;DHT22;44330;51.360;6.686;2023-03-16T03:55:17;4.10;99.90
42663;DHT22;44330;51.360;6.686;2023-03-16T03:57:45;4.20;96.10
42663;DHT22;44330;51.360;6.686;2023-03-16T04:00:14;4.20;89.50
42663;DHT22;44330;51.360;6.686;2023-03-16T04:02:41;4.10;99.90
42663;DHT22;44330;51.360;6.686;2023-03-16T04:05:07;4.20;78.50
42663;DHT22;44330;51.360;6.686;2023-03-16T04:07:32;4.10;82.80
42663;DHT22;44330;51.360;6.686;2023-03-16T04:09:58;4.10;70.90
42663;DHT22;44330;51.360;6.686;2023-03-16T04:12:24;4.20;53.70
42663;DHT22;44330;51.360;6.686;2023-03-16T04:14:49;4.20;48.10
42663;DHT22;44330;51.360;6.686;2023-03-16T04:17:16;4.20;1.00
42663;DHT22;44330;51.360;6.686;2023-03-16T04:19:41;4.20;92.60
42663;DHT22;44330;51.360;6.686;2023-03-16T04:22:07;4.20;77.20
42663;DHT22;44330;51.360;6.686;2023-03-16T04:24:33;4.20;63.00
42663;DHT22;44330;51.360;6.686;2023-03-16T04:26:59;4.20;29.50
42663;DHT22;44330;51.360;6.686;2023-03-16T04:29:25;4.20;42.80
42663;DHT22;44330;51.360;6.686;2023-03-16T04:31:51;4.20;18.00
42663;DHT22;44330;51.360;6.686;2023-03-16T04:34:18;4.30;11.30
42663;DHT22;44330;51.360;6.686;2023-03-16T04:36:44;4.20;39.00
42663;DHT22;44330;51.360;6.686;2023-03-16T04:39:10;4.20;3.50
42663;DHT22;44330;51.360;6.686;2023-03-16T04:41:35;4.30;1.00
42663;DHT22;44330;51.360;6.686;2023-03-16T04:44:01;4.30;1.00
42663;DHT22;44330;51.360;6.686;2023-03-16T04:46:27;4.30;1.00
42663;DHT22;44330;51.360;6.686;2023-03-16T04:48:53;4.30;1.00
42663;DHT22;44330;51.360;6.686;2023-03-16T04:51:23;4.30;1.00
42663;DHT22;44330;51.360;6.686;2023-03-16T04:53:49;4.30;1.00
42663;DHT22;44330;51.360;6.686;2023-03-16T04:56:15;4.30;99.90
42663;DHT22;44330;51.360;6.686;2023-03-16T04:58:47;4.30;99.90
42663;DHT22;44330;51.360;6.686;2023-03-16T05:01:13;4.20;1.00
42663;DHT22;44330;51.360;6.686;2023-03-16T05:03:38;4.30;1.00
42663;DHT22;44330;51.360;6.686;2023-03-16T05:06:04;4.30;1.00
42663;DHT22;44330;51.360;6.686;2023-03-16T05:08:30;4.20;1.00
42663;DHT22;44330;51.360;6.686;2023-03-16T05:10:59;4.30;99.90
42663;DHT22;44330;51.360;6.686;2023-03-16T05:13:24;4.30;99.90
42663;DHT22;44330;51.360;6.686;2023-03-16T05:15:50;4.30;99.90
42663;DHT22;44330;51.360;6.686;2023-03-16T05:18:21;4.30;99.90
42663;DHT22;44330;51.360;6.686;2023-03-16T05:20:51;4.30;99.90
42663;DHT22;44330;51.360;6.686;2023-03-16T05:23:18;4.40;99.90
42663;DHT22;44330;51.360;6.686;2023-03-16T05:25:45;4.30;99.90
42663;DHT22;44330;51.360;6.686;2023-03-16T05:28:11;4.30;99.90
42663;DHT22;44330;51.360;6.686;2023-03-16T05:30:36;4.30;99.90
42663;DHT22;44330;51.360;6.686;2023-03-16T05:33:02;4.30;1.00
42663;DHT22;44330;51.360;6.686;2023-03-16T05:35:28;4.40;99.90
42663;DHT22;44330;51.360;6.686;2023-03-16T05:37:53;4.40;99.90
42663;DHT22;44330;51.360;6.686;2023-03-16T05:40:19;4.30;99.90
42663;DHT22;44330;51.360;6.686;2023-03-16T05:42:52;4.40;99.90
42663;DHT22;44330;51.360;6.686;2023-03-16T05:45:18;4.40;99.90
42663;DHT22;44330;51.360;6.686;2023-03-16T05:47:44;4.40;1.00
42663;DHT22;44330;51.360;6.686;2023-03-16T05:50:12;4.40;1.00
42663;DHT22;44330;51.360;6.686;2023-03-16T05:52:38;4.40;99.90
42663;DHT22;44330;51.360;6.686;2023-03-16T05:55:06;4.40;1.00
42663;DHT22;44330;51.360;6.686;2023-03-16T05:57:32;4.40;1.00
42663;DHT22;44330;51.360;6.686;2023-03-16T05:59:58;4.40;1.00
42663;DHT22;44330;51.360;6.686;2023-03-16T06:02:24;4.40;1.00
42663;DHT22;44330;51.360;6.686;2023-03-16T06:04:50;4.40;1.00
42663;DHT22;44330;51.360;6.686;2023-03-16T06:07:15;4.40;1.00
42663;DHT22;44330;51.360;6.686;2023-03-16T06:09:41;4.50;1.00
42663;DHT22;44330;51.360;6.686;2023-03-16T06:12:07;4.50;1.00
42663;DHT22;44330;51.360;6.686;2023-03-16T06:14:34;4.50;1.00
42663;DHT22;44330;51.360;6.686;2023-03-16T06:16:59;4.50;1.00
42663;DHT22;44330;51.360;6.686;2023-03-16T06:19:25;4.50;1.00
42663;DHT22;44330;51.360;6.686;2023-03-16T06:21:50;4.50;1.00
42663;DHT22;44330;51.360;6.686;2023-03-16T06:24:16;4.60;1.00
42663;DHT22;44330;51.360;6.686;2023-03-16T06:26:41;4.60;99.90
42663;DHT22;44330;51.360;6.686;2023-03-16T06:29:07;4.60;99.90
42663;DHT22;44330;51.360;6.686;2023-03-16T06:31:32;4.70;99.90
42663;DHT22;44330;51.360;6.686;2023-03-16T06:33:59;4.70;99.90
42663;DHT22;44330;51.360;6.686;2023-03-16T06:36:25;4.70;1.00
42663;DHT22;44330;51.360;6.686;2023-03-16T06:38:50;4.70;1.00
42663;DHT22;44330;51.360;6.686;2023-03-16T06:41:16;4.80;1.00
42663;DHT22;44330;51.360;6.686;2023-03-16T06:43:42;4.80;1.00
42663;DHT22;44330;51.360;6.686;2023-03-16T06:46:07;4.90;99.90
42663;DHT22;44330;51.360;6.686;2023-03-16T06:48:33;5.00;99.90
42663;DHT22;44330;51.360;6.686;2023-03-16T06:50:58;5.10;99.90
42663;DHT22;44330;51.360;6.686;2023-03-16T06:53:25;5.10;99.90
42663;DHT22;44330;51.360;6.686;2023-03-16T06:55:50;5.10;99.90
42663;DHT22;44330;51.360;6.686;2023-03-16T06:58:16;5.10;99.90
42663;DHT22;44330;51.360;6.686;2023-03-16T07:00:42;5.20;14.20
42663;DHT22;44330;51.360;6.686;2023-03-16T07:03:07;5.20;45.90
42663;DHT22;44330;51.360;6.686;2023-03-16T07:05:33;5.30;99.90
42663;DHT22;44330;51.360;6.686;2023-03-16T07:08:01;5.30;30.90
42663;DHT22;44330;51.360;6.686;2023-03-16T07:10:26;5.30;1.00
42663;DHT22;44330;51.360;6.686;2023-03-16T07:12:52;5.40;1.00
42663;DHT22;44330;51.360;6.686;2023-03-16T07:15:19;5.40;1.00
42663;DHT22;44330;51.360;6.686;2023-03-16T07:17:46;5.40;1.00
42663;DHT22;44330;51.360;6.686;2023-03-16T07:20:11;5.40;99.90
42663;DHT22;44330;51.360;6.686;2023-03-16T07:22:38;5.40;1.00
42663;DHT22;44330;51.360;6.686;2023-03-16T07:25:04;5.40;18.60
42663;DHT22;44330;51.360;6.686;2023-03-16T07:27:30;5.40;99.90
42663;DHT22;44330;51.360;6.686;2023-03-16T07:29:56;5.50;99.90
42663;DHT22;44330;51.360;6.686;2023-03-16T07:32:22;5.50;99.90
42663;DHT22;44330;51.360;6.686;2023-03-16T07:34:48;5.60;99.90
42663;DHT22;44330;51.360;6.686;2023-03-16T07:37:14;5.60;99.90
42663;DHT22;44330;51.360;6.686;2023-03-16T07:39:43;5.70;99.90
42663;DHT22;44330;51.360;6.686;2023-03-16T07:42:11;5.70;99.90
42663;DHT22;44330;51.360;6.686;2023-03-16T07:44:38;5.70;70.40
42663;DHT22;44330;51.360;6.686;2023-03-16T07:47:04;5.70;1.00
42663;DHT22;44330;51.360;6.686;2023-03-16T07:49:31;5.70;1.00
42663;DHT22;44330;51.360;6.686;2023-03-16T07:51:56;5.70;1.00
42663;DHT22;44330;51.360;6.686;2023-03-16T07:54:25;5.70;1.00
42663;DHT22;44330;51.360;6.686;2023-03-16T07:56:50;5.60;1.00
42663;DHT22;44330;51.360;6.686;2023-03-16T07:59:16;5.70;1.00
42663;DHT22;44330;51.360;6.686;2023-03-16T08:01:42;5.80;99.90
42663;DHT22;44330;51.360;6.686;2023-03-16T08:04:09;5.80;1.00
42663;DHT22;44330;51.360;6.686;2023-03-16T08:06:36;5.80;1.00
42663;DHT22;44330;51.360;6.686;2023-03-16T08:09:02;5.90;99.90
42663;DHT22;44330;51.360;6.686;2023-03-16T08:11:27;5.90;1.00
42663;DHT22;44330;51.360;6.686;2023-03-16T08:13:53;6.00;1.00
42663;DHT22;44330;51.360;6.686;2023-03-16T08:16:21;6.10;99.90
42663;DHT22;44330;51.360;6.686;2023-03-16T08:18:47;6.10;99.90
42663;DHT22;44330;51.360;6.686;2023-03-16T08:21:13;6.20;99.90
42663;DHT22;44330;51.360;6.686;2023-03-16T08:23:39;6.30;99.90
42663;DHT22;44330;51.360;6.686;2023-03-16T08:26:05;6.30;99.90
42663;DHT22;44330;51.360;6.686;2023-03-16T08:28:34;6.40;99.90
42663;DHT22;44330;51.360;6.686;2023-03-16T08:31:00;6.40;99.90
42663;DHT22;44330;51.360;6.686;2023-03-16T08:33:26;6.40;1.00
42663;DHT22;44330;51.360;6.686;2023-03-16T08:35:52;6.50;21.50
42663;DHT22;44330;51.360;6.686;2023-03-16T08:38:18;6.50;1.00
42663;DHT22;44330;51.360;6.686;2023-03-16T08:40:45;6.50;3.00
42663;DHT22;44330;51.360;6.686;2023-03-16T08:43:14;6.50;1.00
42663;DHT22;44330;51.360;6.686;2023-03-16T08:45:39;6.60;1.00
42663;DHT22;44330;51.360;6.686;2023-03-16T08:48:05;6.60;1.00
42663;DHT22;44330;51.360;6.686;2023-03-16T08:50:31;6.60;46.20
42663;DHT22;44330;51.360;6.686;2023-03-16T08:52:58;6.70;1.00
42663;DHT22;44330;51.360;6.686;2023-03-16T08:55:23;6.70;99.90
42663;DHT22;44330;51.360;6.686;2023-03-16T08:57:49;6.80;99.90
42663;DHT22;44330;51.360;6.686;2023-03-16T09:00:15;6.80;99.90
42663;DHT22;44330;51.360;6.686;2023-03-16T09:02:42;6.80;99.90
42663;DHT22;44330;51.360;6.686;2023-03-16T09:05:10;6.90;99.90
42663;DHT22;44330;51.360;6.686;2023-03-16T09:07:36;6.90;99.90
42663;DHT22;44330;51.360;6.686;2023-03-16T09:10:04;6.90;99.90
42663;DHT22;44330;51.360;6.686;2023-03-16T09:12:34;6.90;99.90
42663;DHT22;44330;51.360;6.686;2023-03-16T09:15:00;7.00;99.90
42663;DHT22;44330;51.360;6.686;2023-03-16T09:17:26;7.00;99.90
42663;DHT22;44330;51.360;6.686;2023-03-16T09:19:53;7.10;99.90
42663;DHT22;44330;51.360;6.686;2023-03-16T09:22:19;7.20;1.00
42663;DHT22;44330;51.360;6.686;2023-03-16T09:24:45;7.30;99.90
42663;DHT22;44330;51.360;6.686;2023-03-16T09:27:11;7.30;99.90
42663;DHT22;44330;51.360;6.686;2023-03-16T09:29:36;7.40;99.90
42663;DHT22;44330;51.360;6.686;2023-03-16T09:32:02;7.50;99.90
42663;DHT22;44330;51.360;6.686;2023-03-16T09:34:28;7.60;99.90
42663;DHT22;44330;51.360;6.686;2023-03-16T09:36:54;7.80;99.90
42663;DHT22;44330;51.360;6.686;2023-03-16T09:39:20;7.90;17.20
42663;DHT22;44330;51.360;6.686;2023-03-16T09:42:01;7.90;1.00
42663;DHT22;44330;51.360;6.686;2023-03-16T09:47:17;8.10;99.90
42663;DHT22;44330;51.360;6.686;2023-03-16T09:49:48;8.20;99.90
42663;DHT22;44330;51.360;6.686;2023-03-16T09:55:06;8.20;99.90
42663;DHT22;44330;51.360;6.686;2023-03-16T09:57:39;8.30;99.90
42663;DHT22;44330;51.360;6.686;2023-03-16T10:00:16;8.30;84.70
42663;DHT22;44330;51.360;6.686;2023-03-16T10:05:20;8.60;1.00
42663;DHT22;44330;51.360;6.686;2023-03-16T10:13:50;8.70;99.90
42663;DHT22;44330;51.360;6.686;2023-03-16T10:16:26;8.70;99.90
42663;DHT22;44330;51.360;6.686;2023-03-16T10:19:00;8.70;99.90
42663;DHT22;44330;51.360;6.686;2023-03-16T10:21:27;8.80;99.90
42663;DHT22;44330;51.360;6.686;2023-03-16T10:23:57;8.70;99.90
42663;DHT22;44330;51.360;6.686;2023-03-16T10:26:32;8.80;99.90
42663;DHT22;44330;51.360;6.686;2023-03-16T10:29:00;8.80;6.90
42663;DHT22;44330;51.360;6.686;2023-03-16T10:31:26;8.90;1.00
42663;DHT22;44330;51.360;6.686;2023-03-16T10:33:57;8.90;1.00
42663;DHT22;44330;51.360;6.686;2023-03-16T10:36:30;9.00;1.00
42663;DHT22;44330;51.360;6.686;2023-03-16T10:39:13;9.20;99.90
42663;DHT22;44330;51.360;6.686;2023-03-16T10:41:44;9.30;99.90
42663;DHT22;44330;51.360;6.686;2023-03-16T10:44:23;9.50;99.90
42663;DHT22;44330;51.360;6.686;2023-03-16T10:49:25;9.80;99.90
42663;DHT22;44330;51.360;6.686;2023-03-16T10:51:59;10.00;11.70
42663;DHT22;44330;51.360;6.686;2023-03-16T10:54:34;10.10;21.60
42663;DHT22;44330;51.360;6.686;2023-03-16T10:57:13;10.30;1.00
42663;DHT22;44330;51.360;6.686;2023-03-16T10:59:39;10.30;99.90
42663;DHT22;44330;51.360;6.686;2023-03-16T11:02:21;10.40;99.90
42663;DHT22;44330;51.360;6.686;2023-03-16T11:04:48;10.40;99.90
42663;DHT22;44330;51.360;6.686;2023-03-16T11:07:16;10.50;99.90
42663;DHT22;44330;51.360;6.686;2023-03-16T11:09:43;10.60;99.90
42663;DHT22;44330;51.360;6.686;2023-03-16T11:12:14;10.70;99.90
42663;DHT22;44330;51.360;6.686;2023-03-16T11:14:46;10.80;99.90
42663;DHT22;44330;51.360;6.686;2023-03-16T11:17:17;11.00;99.90
42663;DHT22;44330;51.360;6.686;2023-03-16T11:19:53;11.30;99.90
42663;DHT22;44330;51.360;6.686;2023-03-16T11:22:28;11.70;90.40
42663;DHT22;44330;51.360;6.686;2023-03-16T11:25:13;11.90;14.50
42663;DHT22;44330;51.360;6.686;2023-03-16T11:31:05;12.10;1.00
42663;DHT22;44330;51.360;6.686;2023-03-16T11:33:32;12.10;99.90
42663;DHT22;44330;51.360;6.686;2023-03-16T11:36:19;12.00;99.90
42663;DHT22;44330;51.360;6.686;2023-03-16T11:38:58;12.00;99.90
42663;DHT22;44330;51.360;6.686;2023-03-16T11:45:15;12.00;99.90
42663;DHT22;44330;51.360;6.686;2023-03-16T11:50:59;12.20;99.90
42663;DHT22;44330;51.360;6.686;2023-03-16T11:53:35;12.00;99.90
42663;DHT22;44330;51.360;6.686;2023-03-16T11:56:38;12.00;99.90
42663;DHT22;44330;51.360;6.686;2023-03-16T12:13:45;12.40;99.90
42663;DHT22;44330;51.360;6.686;2023-03-16T12:16:29;12.30;99.90
42663;DHT22;44330;51.360;6.686;2023-03-16T12:19:00;12.20;99.90
42663;DHT22;44330;51.360;6.686;2023-03-16T12:21:37;12.00;99.90
42663;DHT22;44330;51.360;6.686;2023-03-16T12:24:05;12.00;99.90
42663;DHT22;44330;51.360;6.686;2023-03-16T12:26:39;12.00;99.90
42663;DHT22;44330;51.360;6.686;2023-03-16T12:29:26;12.00;99.90
42663;DHT22;44330;51.360;6.686;2023-03-16T12:34:39;11.90;99.90
42663;DHT22;44330;51.360;6.686;2023-03-16T12:40:07;11.90;99.90
42663;DHT22;44330;51.360;6.686;2023-03-16T12:45:38;12.00;99.90
42663;DHT22;44330;51.360;6.686;2023-03-16T12:48:20;12.00;99.90
42663;DHT22;44330;51.360;6.686;2023-03-16T12:50:55;12.00;99.90
42663;DHT22;44330;51.360;6.686;2023-03-16T12:53:37;12.00;99.90
42663;DHT22;44330;51.360;6.686;2023-03-16T12:56:06;12.00;99.90
42663;DHT22;44330;51.360;6.686;2023-03-16T12:58:33;12.10;99.90
42663;DHT22;44330;51.360;6.686;2023-03-16T13:00:59;12.10;99.90
42663;DHT22;44330;51.360;6.686;2023-03-16T13:03:25;12.10;99.90
42663;DHT22;44330;51.360;6.686;2023-03-16T13:05:59;12.10;99.90
42663;DHT22;44330;51.360;6.686;2023-03-16T13:08:26;12.10;99.90
42663;DHT22;44330;51.360;6.686;2023-03-16T13:11:13;12.20;99.90
42663;DHT22;44330;51.360;6.686;2023-03-16T13:16:31;12.80;99.90
42663;DHT22;44330;51.360;6.686;2023-03-16T13:18:57;13.00;99.90
42663;DHT22;44330;51.360;6.686;2023-03-16T13:21:37;13.10;99.90
42663;DHT22;44330;51.360;6.686;2023-03-16T13:24:33;13.20;99.90
42663;DHT22;44330;51.360;6.686;2023-03-16T13:27:18;13.20;88.30
42663;DHT22;44330;51.360;6.686;2023-03-16T13:29:56;13.40;99.90
42663;DHT22;44330;51.360;6.686;2023-03-16T13:32:31;13.50;52.30
42663;DHT22;44330;51.360;6.686;2023-03-16T13:35:04;13.60;53.40
42663;DHT22;44330;51.360;6.686;2023-03-16T13:37:30;13.80;53.40
42663;DHT22;44330;51.360;6.686;2023-03-16T13:39:58;13.90;20.90
42663;DHT22;44330;51.360;6.686;2023-03-16T13:42:31;13.90;24.70
42663;DHT22;44330;51.360;6.686;2023-03-16T13:45:13;13.90;22.10
42663;DHT22;44330;51.360;6.686;2023-03-16T13:47:42;13.80;1.80
42663;DHT22;44330;51.360;6.686;2023-03-16T13:50:12;13.80;1.00
42663;DHT22;44330;51.360;6.686;2023-03-16T13:52:39;13.70;7.80
42663;DHT22;44330;51.360;6.686;2023-03-16T13:55:15;13.70;1.00
42663;DHT22;44330;51.360;6.686;2023-03-16T13:57:51;13.70;1.00
42663;DHT22;44330;51.360;6.686;2023-03-16T14:00:19;13.60;1.00
42663;DHT22;44330;51.360;6.686;2023-03-16T14:02:50;13.70;1.00
42663;DHT22;44330;51.360;6.686;2023-03-16T14:05:32;13.80;1.00
42663;DHT22;44330;51.360;6.686;2023-03-16T14:08:11;14.00;3.40
42663;DHT22;44330;51.360;6.686;2023-03-16T14:10:57;14.10;1.00
42663;DHT22;44330;51.360;6.686;2023-03-16T14:13:37;14.10;1.00
42663;DHT22;44330;51.360;6.686;2023-03-16T14:16:15;14.20;1.00
42663;DHT22;44330;51.360;6.686;2023-03-16T14:18:44;14.20;1.00
42663;DHT22;44330;51.360;6.686;2023-03-16T14:21:27;14.30;1.00
42663;DHT22;44330;51.360;6.686;2023-03-16T14:24:00;14.20;1.00
42663;DHT22;44330;51.360;6.686;2023-03-16T14:26:43;14.30;1.00
42663;DHT22;44330;51.360;6.686;2023-03-16T14:29:28;14.20;1.00
42663;DHT22;44330;51.360;6.686;2023-03-16T14:31:59;14.30;1.00
42663;DHT22;44330;51.360;6.686;2023-03-16T14:34:36;14.20;1.00
42663;DHT22;44330;51.360;6.686;2023-03-16T14:37:11;14.30;1.00
42663;DHT22;44330;51.360;6.686;2023-03-16T14:39:37;14.20;1.00
42663;DHT22;44330;51.360;6.686;2023-03-16T14:42:22;14.10;99.90
42663;DHT22;44330;51.360;6.686;2023-03-16T14:44:50;14.00;99.90
42663;DHT22;44330;51.360;6.686;2023-03-16T14:47:21;14.00;1.00
42663;DHT22;44330;51.360;6.686;2023-03-16T14:49:48;14.00;99.90
42663;DHT22;44330;51.360;6.686;2023-03-16T14:52:23;14.10;1.00
42663;DHT22;44330;51.360;6.686;2023-03-16T14:54:51;14.20;99.90
42663;DHT22;44330;51.360;6.686;2023-03-16T14:57:21;14.30;1.00
42663;DHT22;44330;51.360;6.686;2023-03-16T14:59:47;14.50;99.90
42663;DHT22;44330;51.360;6.686;2023-03-16T15:02:26;14.60;1.00
42663;DHT22;44330;51.360;6.686;2023-03-16T15:04:53;14.50;99.90
42663;DHT22;44330;51.360;6.686;2023-03-16T15:07:27;14.50;99.90
42663;DHT22;44330;51.360;6.686;2023-03-16T15:09:56;14.50;99.90
42663;DHT22;44330;51.360;6.686;2023-03-16T15:12:25;14.30;99.90
42663;DHT22;44330;51.360;6.686;2023-03-16T15:14:51;14.40;99.90
42663;DHT22;44330;51.360;6.686;2023-03-16T15:17:35;14.30;99.90
42663;DHT22;44330;51.360;6.686;2023-03-16T15:20:02;14.20;99.90
42663;DHT22;44330;51.360;6.686;2023-03-16T15:22:36;14.20;99.90
42663;DHT22;44330;51.360;6.686;2023-03-16T15:25:17;14.20;99.90
42663;DHT22;44330;51.360;6.686;2023-03-16T15:27:44;14.20;99.90
42663;DHT22;44330;51.360;6.686;2023-03-16T15:30:20;14.20;99.90
42663;DHT22;44330;51.360;6.686;2023-03-16T15:32:46;14.30;99.90
42663;DHT22;44330;51.360;6.686;2023-03-16T15:35:11;14.20;99.90
42663;DHT22;44330;51.360;6.686;2023-03-16T15:37:37;14.10;99.90
42663;DHT22;44330;51.360;6.686;2023-03-16T15:40:21;14.00;99.90
42663;DHT22;44330;51.360;6.686;2023-03-16T15:42:47;14.00;99.90
42663;DHT22;44330;51.360;6.686;2023-03-16T15:45:15;14.00;99.90
42663;DHT22;44330;51.360;6.686;2023-03-16T15:47:46;13.90;99.90
42663;DHT22;44330;51.360;6.686;2023-03-16T15:50:13;13.70;99.90
42663;DHT22;44330;51.360;6.686;2023-03-16T15:52:44;13.70;99.90
42663;DHT22;44330;51.360;6.686;2023-03-16T15:55:20;13.60;99.90
42663;DHT22;44330;51.360;6.686;2023-03-16T15:57:48;13.50;99.90
42663;DHT22;44330;51.360;6.686;2023-03-16T16:00:25;13.50;99.90
42663;DHT22;44330;51.360;6.686;2023-03-16T16:02:52;13.30;99.90
42663;DHT22;44330;51.360;6.686;2023-03-16T16:05:17;13.20;99.90
42663;DHT22;44330;51.360;6.686;2023-03-16T16:07:43;13.10;99.90
42663;DHT22;44330;51.360;6.686;2023-03-16T16:10:12;13.10;99.90
42663;DHT22;44330;51.360;6.686;2023-03-16T16:12:37;13.00;99.90
42663;DHT22;44330;51.360;6.686;2023-03-16T16:17:42;12.80;99.90
42663;DHT22;44330;51.360;6.686;2023-03-16T16:20:19;12.80;99.90
42663;DHT22;44330;51.360;6.686;2023-03-16T16:22:45;12.70;99.90
42663;DHT22;44330;51.360;6.686;2023-03-16T16:25:12;12.60;99.90
42663;DHT22;44330;51.360;6.686;2023-03-16T16:27:38;12.60;99.90
42663;DHT22;44330;51.360;6.686;2023-03-16T16:30:28;12.60;99.90
42663;DHT22;44330;51.360;6.686;2023-03-16T16:32:55;12.50;99.90
42663;DHT22;44330;51.360;6.686;2023-03-16T16:35:26;12.50;99.90
42663;DHT22;44330;51.360;6.686;2023-03-16T16:37:52;12.50;99.90
42663;DHT22;44330;51.360;6.686;2023-03-16T16:40:20;12.40;99.90
42663;DHT22;44330;51.360;6.686;2023-03-16T16:42:49;12.40;99.90
42663;DHT22;44330;51.360;6.686;2023-03-16T16:45:18;12.40;99.90
42663;DHT22;44330;51.360;6.686;2023-03-16T16:47:45;12.30;99.90
42663;DHT22;44330;51.360;6.686;2023-03-16T16:50:29;12.30;99.90
42663;DHT22;44330;51.360;6.686;2023-03-16T16:52:57;12.20;99.90
42663;DHT22;44330;51.360;6.686;2023-03-16T16:55:23;12.20;99.90
42663;DHT22;44330;51.360;6.686;2023-03-16T16:57:52;12.00;99.90
42663;DHT22;44330;51.360;6.686;2023-03-16T17:00:20;12.10;1.00
42663;DHT22;44330;51.360;6.686;2023-03-16T17:02:49;12.10;99.90
42663;DHT22;44330;51.360;6.686;2023-03-16T17:05:21;12.00;99.90
42663;DHT22;44330;51.360;6.686;2023-03-16T17:07:48;11.90;1.00
42663;DHT22;44330;51.360;6.686;2023-03-16T17:10:22;11.90;1.00